Time;durP1;ratioP1;P1;durP2;ratioP2;P2;SDS_P1;SDS_P2;PMS_P1;PMS_P2;Temp;Humidity;BMP_temperature;BMP_pressure;BME280_temperature;BME280_humidity;BME280_pressure;Samples;Min_cycle;Max_cycle;Signal;HPM_P1;HPM_P2
2022/10/15 00:00:48;;;;;;;5.05;4.63;;;;;;;14.27;100.00;99581.97;5048292;28;20052;-75
2022/10/15 00:03:15;;;;;;;7.63;5.65;;;;;;;14.17;100.00;99580.09;5046938;28;20055;-75
2022/10/15 00:05:42;;;;;;;5.30;4.78;;;;;;;14.30;100.00;99607.53;5051560;28;20059;-73
2022/10/15 00:08:10;;;;;;;5.70;5.20;;;;;;;14.32;100.00;99611.75;5043746;28;20432;-76
2022/10/15 00:10:37;;;;;;;6.97;6.15;;;;;;;14.26;100.00;99596.25;5048372;28;20057;-75
2022/10/15 00:13:05;;;;;;;5.32;4.88;;;;;;;14.30;100.00;99608.38;5043111;28;20041;-73
2022/10/15 00:15:31;;;;;;;6.60;5.80;;;;;;;14.31;100.00;99599.41;5048012;28;20844;-75
2022/10/15 00:17:58;;;;;;;7.63;5.88;;;;;;;14.34;100.00;99603.66;5046619;28;20116;-74
2022/10/15 00:20:25;;;;;;;6.93;6.22;;;;;;;14.31;100.00;99583.44;5045282;28;20064;-74
2022/10/15 00:22:51;;;;;;;7.13;6.43;;;;;;;14.32;100.00;99582.44;5047658;28;20511;-74
2022/10/15 00:25:18;;;;;;;7.30;6.55;;;;;;;14.22;100.00;99561.97;5047020;28;20059;-75
2022/10/15 00:27:45;;;;;;;7.50;6.80;;;;;;;14.42;100.00;99585.31;5044564;28;20048;-74
2022/10/15 00:30:11;;;;;;;8.18;7.38;;;;;;;14.37;100.00;99585.63;5046291;28;20043;-75
2022/10/15 00:32:38;;;;;;;8.20;7.07;;;;;;;14.32;100.00;99589.63;5043992;28;20490;-73
2022/10/15 00:35:05;;;;;;;6.82;6.18;;;;;;;14.27;100.00;99579.31;5025657;28;20053;-73
2022/10/15 00:37:32;;;;;;;9.05;6.75;;;;;;;14.30;100.00;99586.22;5044307;28;20049;-74
2022/10/15 00:39:58;;;;;;;8.38;7.50;;;;;;;14.17;100.00;99564.97;5044853;28;20412;-73
2022/10/15 00:42:25;;;;;;;7.82;6.65;;;;;;;14.33;100.00;99585.97;5044822;28;20444;-74
2022/10/15 00:44:55;;;;;;;8.20;6.88;;;;;;;14.34;100.00;99588.50;5044474;28;20068;-75
2022/10/15 00:47:32;;;;;;;9.98;8.32;;;;;;;14.34;100.00;99596.50;5042263;28;20049;-74
2022/10/15 00:50:04;;;;;;;11.25;9.00;;;;;;;14.29;100.00;99597.84;5043490;28;20045;-75
2022/10/15 00:52:43;;;;;;;12.70;9.93;;;;;;;14.27;100.00;99583.78;5045303;28;20047;-76
2022/10/15 00:55:12;;;;;;;12.75;9.85;;;;;;;14.23;100.00;99585.81;5042676;28;20048;-74
2022/10/15 00:57:39;;;;;;;12.52;10.40;;;;;;;14.05;100.00;99566.72;5043296;28;20049;-75
2022/10/15 01:00:14;;;;;;;14.38;10.95;;;;;;;14.17;100.00;99580.94;5041213;28;20059;-74
2022/10/15 01:02:41;;;;;;;15.25;11.20;;;;;;;14.18;100.00;99585.31;5049468;28;21061;-74
2022/10/15 01:05:09;;;;;;;15.35;11.73;;;;;;;14.16;100.00;99578.41;5043717;28;20049;-75
2022/10/15 01:07:36;;;;;;;14.85;11.90;;;;;;;14.15;100.00;99566.06;5042485;28;20722;-74
2022/10/15 01:10:05;;;;;;;15.90;12.25;;;;;;;14.11;100.00;99559.25;5046886;28;20048;-73
2022/10/15 01:12:46;;;;;;;17.27;12.73;;;;;;;14.17;100.00;99567.63;5048884;28;20045;-75
2022/10/15 01:15:21;;;;;;;;;;;;;;;14.17;100.00;99566.78;5044985;28;20048;-75
2022/10/15 01:17:57;;;;;;;15.73;11.27;;;;;;;14.17;100.00;99561.44;5048186;28;20300;-74
2022/10/15 01:20:48;;;;;;;16.90;12.73;;;;;;;14.17;100.00;99564.97;5042771;28;20128;-73
2022/10/15 01:23:24;;;;;;;18.40;13.77;;;;;;;14.17;100.00;99562.28;5044009;28;20470;-72
2022/10/15 01:26:17;;;;;;;20.77;14.02;;;;;;;14.19;100.00;99567.50;5045381;28;20507;-75
2022/10/15 01:28:55;;;;;;;16.38;12.52;;;;;;;14.15;100.00;99550.94;5041612;28;20044;-72
2022/10/15 01:31:35;;;;;;;20.08;13.80;;;;;;;14.18;100.00;99558.66;5047081;28;20098;-73
2022/10/15 01:34:19;;;;;;;19.23;13.43;;;;;;;14.15;100.00;99556.28;5044368;28;20049;-74
2022/10/15 01:36:45;;;;;;;19.38;14.18;;;;;;;14.15;100.00;99566.91;5043152;28;20139;-73
2022/10/15 01:39:22;;;;;;;19.17;13.30;;;;;;;14.16;100.00;99568.63;5047261;28;20500;-72
2022/10/15 01:41:54;;;;;;;21.38;13.80;;;;;;;14.15;100.00;99560.75;5039406;28;20124;-72
2022/10/15 01:44:27;;;;;;;20.08;14.63;;;;;;;13.98;100.00;99530.91;5045819;28;20530;-74
2022/10/15 01:47:03;;;;;;;22.52;14.07;;;;;;;14.16;100.00;99552.66;5042366;28;20069;-75
2022/10/15 01:49:33;;;;;;;22.27;14.60;;;;;;;14.14;100.00;99548.38;5045679;28;20139;-74
2022/10/15 01:52:09;;;;;;;19.02;13.30;;;;;;;14.11;100.00;99537.97;5044738;28;20060;-74
2022/10/15 01:54:36;;;;;;;16.80;12.95;;;;;;;14.14;100.00;99541.25;5041198;28;20069;-73
2022/10/15 01:57:05;;;;;;;18.42;13.48;;;;;;;14.20;100.00;99547.91;5049149;28;20087;-74
2022/10/15 01:59:33;;;;;;;19.65;13.80;;;;;;;14.26;100.00;99537.66;5047431;28;20075;-74
2022/10/15 02:01:59;;;;;;;20.60;14.35;;;;;;;14.27;100.00;99536.69;5050803;28;20045;-74
2022/10/15 02:04:28;;;;;;;22.50;14.43;;;;;;;14.27;100.00;99538.50;5050328;28;20061;-72
2022/10/15 02:07:05;;;;;;;21.92;14.55;;;;;;;14.28;100.00;99546.38;5048601;28;20717;-75
2022/10/15 02:09:38;;;;;;;22.92;14.80;;;;;;;14.11;100.00;99517.53;5044311;28;20120;-76
2022/10/15 02:12:22;;;;;;;24.17;15.15;;;;;;;14.25;100.00;99541.28;5049122;28;20390;-74
2022/10/15 02:15:01;;;;;;;26.13;16.10;;;;;;;14.20;100.00;99530.13;5054034;28;20044;-73
2022/10/15 02:17:40;;;;;;;26.95;15.75;;;;;;;14.16;100.00;99534.00;5041127;28;20045;-74
2022/10/15 02:20:20;;;;;;;28.92;16.48;;;;;;;14.22;100.00;99546.84;5047539;28;20140;-72
2022/10/15 02:22:58;;;;;;;25.40;15.52;;;;;;;14.18;100.00;99537.38;5040028;28;20049;-73
2022/10/15 02:25:27;;;;;;;32.13;16.52;;;;;;;13.99;100.00;99513.97;5043775;28;20089;-72
2022/10/15 02:27:56;;;;;;;28.33;16.92;;;;;;;14.17;100.00;99541.00;5044103;28;20037;-75
2022/10/15 02:30:25;;;;;;;31.17;17.02;;;;;;;14.18;100.00;99539.19;5045908;28;20049;-75
2022/10/15 02:32:55;;;;;;;27.40;16.10;;;;;;;14.18;100.00;99534.72;5043399;28;20060;-74
2022/10/15 02:35:23;;;;;;;27.23;15.95;;;;;;;14.03;100.00;99517.22;5047363;28;20049;-74
2022/10/15 02:37:53;;;;;;;31.13;17.15;;;;;;;14.16;100.00;99544.66;5042675;28;20417;-74
2022/10/15 02:40:26;;;;;;;32.65;17.65;;;;;;;14.18;100.00;99548.03;5049621;28;20128;-75
2022/10/15 02:42:53;;;;;;;28.83;16.50;;;;;;;14.00;100.00;99522.81;5044958;28;20051;-74
2022/10/15 02:45:20;;;;;;;32.85;15.25;;;;;;;14.15;100.00;99545.63;5047472;28;20106;-74
2022/10/15 02:47:46;;;;;;;29.38;15.65;;;;;;;14.17;100.00;99551.66;5046410;28;20484;-74
2022/10/15 02:50:13;;;;;;;28.02;15.90;;;;;;;14.05;100.00;99525.94;5044777;28;20056;-73
2022/10/15 02:52:39;;;;;;;29.30;15.48;;;;;;;14.16;100.00;99547.31;5046108;28;20051;-74
2022/10/15 02:55:06;;;;;;;28.38;15.13;;;;;;;14.18;100.00;99544.50;5048444;28;20055;-75
2022/10/15 02:57:33;;;;;;;31.30;16.08;;;;;;;14.21;100.00;99546.94;5047605;28;20068;-74
2022/10/15 02:59:59;;;;;;;26.77;14.52;;;;;;;14.17;100.00;99538.34;5048782;28;20053;-74
2022/10/15 03:02:26;;;;;;;25.17;14.65;;;;;;;14.20;100.00;99540.78;5048053;28;20053;-74
2022/10/15 03:04:53;;;;;;;24.63;14.25;;;;;;;14.04;100.00;99506.47;5046660;28;20443;-73
2022/10/15 03:07:19;;;;;;;25.73;14.50;;;;;;;14.18;100.00;99526.72;5045940;28;20060;-72
2022/10/15 03:09:46;;;;;;;25.17;14.95;;;;;;;14.20;100.00;99522.13;5047459;28;20103;-75
2022/10/15 03:12:13;;;;;;;27.58;15.02;;;;;;;14.27;100.00;99528.72;5041706;28;20063;-73
2022/10/15 03:14:40;;;;;;;25.95;14.90;;;;;;;14.30;100.00;99536.47;5046345;28;20113;-74
2022/10/15 03:17:06;;;;;;;30.35;15.18;;;;;;;14.26;100.00;99537.66;5046628;28;20135;-75
2022/10/15 03:19:33;;;;;;;30.23;15.35;;;;;;;14.13;100.00;99520.06;5048674;28;20053;-76
2022/10/15 03:22:00;;;;;;;24.08;14.18;;;;;;;14.29;100.00;99539.25;5048682;28;20049;-75
2022/10/15 03:24:26;;;;;;;25.75;14.18;;;;;;;14.36;100.00;99543.13;5048787;28;20417;-76
2022/10/15 03:26:53;;;;;;;31.90;16.58;;;;;;;14.35;100.00;99544.94;5047299;28;20043;-75
2022/10/15 03:29:19;;;;;;;29.02;15.48;;;;;;;14.29;100.00;99547.22;5033228;28;20056;-76
2022/10/15 03:31:46;;;;;;;31.92;15.82;;;;;;;14.28;100.00;99549.06;5041923;28;20061;-73
2022/10/15 03:34:12;;;;;;;31.40;15.52;;;;;;;14.27;100.00;99549.16;5042914;28;20068;-74
2022/10/15 03:36:39;;;;;;;30.90;14.93;;;;;;;14.24;100.00;99550.25;5044180;28;20512;-76
2022/10/15 03:39:07;;;;;;;32.80;15.68;;;;;;;14.15;100.00;99542.09;5042022;28;20144;-76
2022/10/15 03:41:33;;;;;;;35.22;15.85;;;;;;;14.21;100.00;99549.63;5047983;28;20087;-75
2022/10/15 03:44:04;;;;;;;34.00;15.25;;;;;;;13.78;100.00;99477.47;5044016;28;20079;-75
2022/10/15 03:46:31;;;;;;;29.83;14.43;;;;;;;14.24;100.00;99560.88;5047105;28;20059;-77
2022/10/15 03:48:58;;;;;;;34.83;15.70;;;;;;;14.04;100.00;99529.56;5042704;28;20041;-75
2022/10/15 03:51:25;;;;;;;32.20;14.98;;;;;;;14.04;100.00;99527.75;5045006;28;20049;-76
2022/10/15 03:53:56;;;;;;;33.45;15.13;;;;;;;14.10;100.00;99537.13;5047104;28;20527;-74
2022/10/15 03:56:23;;;;;;;34.50;15.10;;;;;;;14.09;100.00;99535.41;5045392;28;20487;-76
2022/10/15 03:58:49;;;;;;;30.60;14.70;;;;;;;14.24;100.00;99552.91;5047034;28;20053;-74
2022/10/15 04:01:17;;;;;;;27.17;13.55;;;;;;;14.31;100.00;99556.81;5045110;28;20056;-74
2022/10/15 04:03:44;;;;;;;26.67;13.32;;;;;;;14.34;100.00;99561.03;5044834;28;20044;-76
2022/10/15 04:06:11;;;;;;;25.27;12.65;;;;;;;14.05;100.00;99512.66;5040192;28;20048;-76
2022/10/15 04:08:37;;;;;;;25.77;13.30;;;;;;;14.34;100.00;99556.56;5042540;28;20052;-76
2022/10/15 04:11:04;;;;;;;30.70;14.27;;;;;;;14.32;100.00;99557.66;5046687;28;20052;-75
2022/10/15 04:13:30;;;;;;;25.73;12.63;;;;;;;14.38;100.00;99566.03;5048397;28;20140;-72
2022/10/15 04:15:57;;;;;;;27.20;13.90;;;;;;;14.26;100.00;99550.97;5040769;28;20045;-75
2022/10/15 04:18:24;;;;;;;23.23;12.85;;;;;;;14.19;100.00;99535.56;5045504;28;20049;-75
2022/10/15 04:20:50;;;;;;;29.17;13.82;;;;;;;14.35;100.00;99570.72;5044731;28;20486;-73
2022/10/15 04:23:17;;;;;;;28.20;13.20;;;;;;;14.33;100.00;99576.16;5044753;28;20237;-76
2022/10/15 04:25:44;;;;;;;26.40;13.48;;;;;;;14.35;100.00;99587.56;5045598;28;20390;-75
2022/10/15 04:28:11;;;;;;;26.65;12.45;;;;;;;14.38;100.00;99578.50;5046280;28;20065;-72
2022/10/15 04:30:38;;;;;;;29.10;13.35;;;;;;;14.38;100.00;99590.00;5042969;28;20055;-74
2022/10/15 04:33:04;;;;;;;27.25;12.88;;;;;;;14.20;100.00;99547.91;5043947;28;20053;-74
2022/10/15 04:35:31;;;;;;;25.73;12.55;;;;;;;14.34;100.00;99577.88;5047000;28;20055;-74
2022/10/15 04:37:58;;;;;;;26.45;12.88;;;;;;;14.42;100.00;99589.81;5044754;28;20045;-74
2022/10/15 04:40:25;;;;;;;27.08;13.35;;;;;;;14.42;100.00;99589.81;5048601;28;20053;-72
2022/10/15 04:42:51;;;;;;;30.23;13.15;;;;;;;14.26;100.00;99561.63;5048137;28;20049;-74
2022/10/15 04:45:18;;;;;;;29.08;13.43;;;;;;;14.35;100.00;99592.88;5046824;28;20107;-76
2022/10/15 04:47:44;;;;;;;28.95;14.27;;;;;;;14.37;100.00;99590.94;5046119;28;20051;-72
2022/10/15 04:50:11;;;;;;;36.63;15.35;;;;;;;14.36;100.00;99588.41;5043842;28;20128;-75
2022/10/15 04:52:38;;;;;;;31.63;14.98;;;;;;;14.33;100.00;99572.66;5045488;28;20041;-75
2022/10/15 04:55:05;;;;;;;31.08;14.13;;;;;;;14.18;100.00;99550.69;5047129;28;20040;-75
2022/10/15 04:57:31;;;;;;;31.05;13.80;;;;;;;14.25;100.00;99561.75;5045950;28;20132;-75
2022/10/15 04:59:58;;;;;;;31.85;15.32;;;;;;;14.23;100.00;99561.84;5044586;28;20040;-75
2022/10/15 05:02:25;;;;;;;34.53;15.57;;;;;;;14.39;100.00;99604.16;5046985;28;20075;-72
2022/10/15 05:04:51;;;;;;;33.60;15.10;;;;;;;14.34;100.00;99596.50;5044974;28;20493;-72
2022/10/15 05:07:18;;;;;;;33.30;14.98;;;;;;;14.32;100.00;99600.28;5045295;28;20409;-73
2022/10/15 05:09:44;;;;;;;40.15;15.73;;;;;;;14.30;100.00;99602.19;5042950;28;20057;-75
2022/10/15 05:12:12;;;;;;;37.85;16.05;;;;;;;14.29;100.00;99612.00;5044595;28;20505;-73
2022/10/15 05:14:38;;;;;;;35.25;15.55;;;;;;;14.17;100.00;99594.25;5039632;28;20076;-74
2022/10/15 05:17:05;;;;;;;33.08;14.75;;;;;;;14.27;100.00;99603.28;5043414;28;22081;-76
2022/10/15 05:19:31;;;;;;;42.45;15.82;;;;;;;14.26;100.00;99584.75;5042119;28;20045;-74
2022/10/15 05:21:58;;;;;;;37.20;15.88;;;;;;;14.34;100.00;99604.50;5044721;28;20564;-76
2022/10/15 05:24:24;;;;;;;30.50;14.20;;;;;;;14.25;100.00;99578.56;5045330;28;20056;-73
2022/10/15 05:26:51;;;;;;;32.78;15.75;;;;;;;14.33;100.00;99597.47;5042291;28;20598;-76
2022/10/15 05:29:17;;;;;;;35.65;15.80;;;;;;;14.29;100.00;99598.69;5046242;28;20477;-77
2022/10/15 05:31:44;;;;;;;38.33;17.45;;;;;;;14.34;100.00;99609.81;5041895;28;20053;-76
2022/10/15 05:34:11;;;;;;;33.17;15.20;;;;;;;14.33;100.00;99601.94;5041971;28;20041;-74
2022/10/15 05:36:38;;;;;;;38.35;15.88;;;;;;;14.32;100.00;99610.94;5041809;28;20053;-75
2022/10/15 05:39:09;;;;;;;35.90;15.38;;;;;;;14.31;100.00;99614.56;5044889;28;20045;-73
2022/10/15 05:41:35;;;;;;;32.33;14.65;;;;;;;14.33;100.00;99608.13;5041506;28;20057;-76
2022/10/15 05:44:02;;;;;;;30.75;15.20;;;;;;;14.17;100.00;99594.25;5045098;28;20041;-70
2022/10/15 05:46:28;;;;;;;33.85;15.95;;;;;;;14.29;100.00;99633.31;5041614;28;20041;-74
2022/10/15 05:48:56;;;;;;;30.25;14.93;;;;;;;14.29;100.00;99633.31;5037801;28;20507;-74
2022/10/15 05:51:24;;;;;;;28.42;14.50;;;;;;;14.32;100.00;99640.22;5045196;28;20512;-75
2022/10/15 05:53:52;;;;;;;26.30;13.95;;;;;;;14.32;100.00;99645.56;5043385;28;20621;-75
2022/10/15 05:56:19;;;;;;;23.33;12.32;;;;;;;14.13;100.00;99614.09;5039519;28;20053;-76
2022/10/15 05:58:45;;;;;;;20.70;11.40;;;;;;;14.32;100.00;99646.38;5045419;28;20057;-71
2022/10/15 06:01:13;;;;;;;22.52;12.60;;;;;;;14.32;100.00;99637.56;5040249;28;20037;-76
2022/10/15 06:03:41;;;;;;;19.75;12.23;;;;;;;14.24;100.00;99646.09;5040960;28;20050;-74
2022/10/15 06:06:25;;;;;;;19.05;10.80;;;;;;;14.24;100.00;99653.25;5038354;28;20820;-74
2022/10/15 06:08:53;;;;;;;19.52;11.18;;;;;;;14.23;100.00;99654.19;5042857;28;20049;-74
2022/10/15 06:11:19;;;;;;;16.45;9.98;;;;;;;14.23;100.00;99662.19;5043409;28;20057;-75
2022/10/15 06:13:46;;;;;;;17.25;11.05;;;;;;;14.21;100.00;99664.09;5045500;28;20049;-75
2022/10/15 06:16:16;;;;;;;20.40;10.88;;;;;;;14.17;100.00;99668.81;5037936;28;20048;-76
2022/10/15 06:18:50;;;;;;;18.42;11.02;;;;;;;13.97;100.00;99648.13;5044803;28;20049;-74
2022/10/15 06:21:17;;;;;;;19.50;11.30;;;;;;;14.15;100.00;99678.75;5035065;28;20042;-75
2022/10/15 06:23:44;;;;;;;18.05;10.25;;;;;;;14.15;100.00;99677.91;5042393;28;20045;-74
2022/10/15 06:26:11;;;;;;;18.23;10.65;;;;;;;14.17;100.00;99673.28;5040176;28;20493;-74
2022/10/15 06:28:38;;;;;;;20.02;11.98;;;;;;;14.17;100.00;99668.81;5042161;28;20045;-76
2022/10/15 06:31:06;;;;;;;21.40;12.48;;;;;;;14.12;100.00;99654.16;5041783;28;20041;-75
2022/10/15 06:33:32;;;;;;;23.02;13.57;;;;;;;14.19;100.00;99668.69;5046873;28;20052;-72
2022/10/15 06:36:04;;;;;;;25.05;13.35;;;;;;;14.18;100.00;99667.84;5038277;28;20065;-75
2022/10/15 06:38:31;;;;;;;20.75;13.23;;;;;;;14.20;100.00;99679.25;5046528;28;20041;-74
2022/10/15 06:40:57;;;;;;;22.48;12.43;;;;;;;14.25;100.00;99690.41;5045222;28;20076;-74
2022/10/15 06:43:24;;;;;;;17.13;10.45;;;;;;;14.24;100.00;99683.38;5048276;28;20054;-75
2022/10/15 06:45:54;;;;;;;15.65;9.80;;;;;;;14.05;100.00;99672.38;5043213;28;20103;-75
2022/10/15 06:48:20;;;;;;;16.00;9.77;;;;;;;14.19;100.00;99697.97;5047004;28;20053;-75
2022/10/15 06:50:47;;;;;;;14.60;10.45;;;;;;;14.10;100.00;99691.53;5043760;28;20078;-74
2022/10/15 06:53:15;;;;;;;15.63;10.93;;;;;;;14.15;100.00;99715.16;5051151;28;20060;-73
2022/10/15 06:55:42;;;;;;;15.82;10.48;;;;;;;14.13;100.00;99714.44;5045067;28;20508;-75
2022/10/15 06:58:08;;;;;;;15.07;9.20;;;;;;;13.93;100.00;99697.22;5049041;28;20059;-74
2022/10/15 07:00:35;;;;;;;12.88;8.50;;;;;;;14.11;100.00;99727.84;5052312;28;20057;-72
2022/10/15 07:03:05;;;;;;;12.75;8.10;;;;;;;14.15;100.00;99729.34;5046576;28;20041;-74
2022/10/15 07:05:33;;;;;;;11.80;7.38;;;;;;;14.12;100.00;99716.25;5047748;28;20060;-76
2022/10/15 07:08:00;;;;;;;11.90;7.50;;;;;;;14.05;100.00;99715.81;5048298;28;20128;-75
2022/10/15 07:10:27;;;;;;;12.85;7.53;;;;;;;14.20;100.00;99724.50;5030122;28;20055;-74
2022/10/15 07:12:54;;;;;;;12.02;7.43;;;;;;;14.13;100.00;99720.59;5045295;28;20652;-73
2022/10/15 07:15:21;;;;;;;17.73;8.27;;;;;;;14.17;100.00;99734.53;5046249;28;20049;-77
2022/10/15 07:17:49;;;;;;;14.05;7.68;;;;;;;14.16;100.00;99743.50;5045628;28;20052;-76
2022/10/15 07:20:16;;;;;;;12.60;7.80;;;;;;;14.15;100.00;99744.47;5048695;28;20041;-78
2022/10/15 07:22:48;;;;;;;12.30;7.65;;;;;;;14.07;100.00;99738.81;5046896;28;20049;-74
2022/10/15 07:25:15;;;;;;;11.50;6.80;;;;;;;14.12;100.00;99740.19;5043221;28;20053;-73
2022/10/15 07:27:42;;;;;;;12.02;6.93;;;;;;;14.17;100.00;99739.84;5047606;28;20048;-74
2022/10/15 07:30:09;;;;;;;11.40;7.15;;;;;;;14.21;100.00;99741.34;5045074;28;20048;-76
2022/10/15 07:32:35;;;;;;;10.70;6.97;;;;;;;14.13;100.00;99728.59;5047330;28;20064;-74
2022/10/15 07:35:02;;;;;;;13.27;7.82;;;;;;;14.05;100.00;99729.13;5048761;28;20052;-70
2022/10/15 07:37:29;;;;;;;13.02;7.70;;;;;;;13.91;100.00;99717.75;5041009;28;20512;-75
2022/10/15 07:39:55;;;;;;;12.57;7.63;;;;;;;14.18;100.00;99763.69;5047416;28;20052;-72
2022/10/15 07:42:22;;;;;;;10.93;6.75;;;;;;;14.20;100.00;99751.13;5046699;28;20529;-73
2022/10/15 07:44:48;;;;;;;12.50;6.43;;;;;;;14.28;100.00;99748.78;5042268;28;20045;-74
2022/10/15 07:47:15;;;;;;;11.90;7.30;;;;;;;14.30;100.00;99740.69;5043303;28;20128;-73
2022/10/15 07:49:41;;;;;;;12.27;7.43;;;;;;;14.26;100.00;99741.88;5048034;28;20065;-73
2022/10/15 07:52:08;;;;;;;10.65;7.47;;;;;;;14.38;100.00;99755.13;5039849;28;20424;-75
2022/10/15 07:54:35;;;;;;;13.73;7.70;;;;;;;14.20;100.00;99740.47;5043014;28;20053;-74
2022/10/15 07:57:02;;;;;;;12.52;8.02;;;;;;;14.19;100.00;99738.78;5025078;28;20131;-74
2022/10/15 07:59:28;;;;;;;12.98;7.90;;;;;;;14.37;100.00;99764.09;5043117;28;20048;-75
2022/10/15 08:01:55;;;;;;;12.57;8.43;;;;;;;14.47;100.00;99769.66;5044837;28;20057;-75
2022/10/15 08:04:22;;;;;;;12.40;8.75;;;;;;;14.60;100.00;99769.59;5038895;28;20053;-75
2022/10/15 08:06:48;;;;;;;11.90;7.97;;;;;;;14.68;100.00;99769.88;5027844;28;20062;-75
2022/10/15 08:09:16;;;;;;;12.75;8.98;;;;;;;14.71;100.00;99761.66;5041981;28;20630;-76
2022/10/15 08:11:43;;;;;;;11.20;7.82;;;;;;;14.79;100.00;99767.28;5042401;28;20110;-74
2022/10/15 08:14:09;;;;;;;11.27;7.47;;;;;;;14.72;100.00;99768.69;5026194;28;20056;-76
2022/10/15 08:16:36;;;;;;;12.23;8.07;;;;;;;14.69;100.00;99753.75;5025641;28;20091;-71
2022/10/15 08:19:02;;;;;;;9.85;7.68;;;;;;;14.79;100.00;99769.09;5043967;28;20052;-74
2022/10/15 08:21:29;;;;;;;8.40;6.68;;;;;;;14.75;100.00;99779.13;5040476;28;20045;-74
2022/10/15 08:23:56;;;;;;;10.70;6.90;;;;;;;14.73;100.00;99776.56;5042314;28;20076;-75
2022/10/15 08:26:22;;;;;;;9.25;6.72;;;;;;;14.72;100.00;99753.53;5040862;28;20084;-74
2022/10/15 08:28:49;;;;;;;9.23;7.20;;;;;;;14.98;100.00;99772.06;5045889;28;20517;-73
2022/10/15 08:31:18;;;;;;;10.38;6.68;;;;;;;14.98;100.00;99756.06;5043650;28;20049;-74
2022/10/15 08:33:45;;;;;;;13.02;7.80;;;;;;;15.12;100.00;99771.03;5039640;28;20139;-72
2022/10/15 08:36:11;;;;;;;9.60;6.25;;;;;;;15.05;100.00;99768.84;5043910;28;20119;-74
2022/10/15 08:38:38;;;;;;;9.65;5.53;;;;;;;15.05;100.00;99775.97;5044349;28;20473;-72
2022/10/15 08:41:18;;;;;;;8.02;5.78;;;;;;;14.96;100.00;99769.50;5046302;28;20055;-77
2022/10/15 08:43:46;;;;;;;9.38;6.40;;;;;;;15.11;100.00;99788.00;5039913;28;20152;-71
2022/10/15 08:46:21;;;;;;;8.75;6.50;;;;;;;15.12;100.00;99777.19;5045700;28;20051;-77
2022/10/15 08:48:52;;;;;;;8.57;6.30;;;;;;;15.17;100.00;99780.38;5041737;28;20790;-74
2022/10/15 08:51:22;;;;;;;7.47;6.20;;;;;;;15.07;100.00;99758.91;5042175;28;20061;-78
2022/10/15 08:53:53;;;;;;;8.45;5.75;;;;;;;15.23;100.00;99779.94;5041769;28;20140;-78
2022/10/15 08:56:28;;;;;;;8.23;6.07;;;;;;;15.39;100.00;99792.94;5044206;28;20075;-75
2022/10/15 08:59:00;;;;;;;10.88;5.70;;;;;;;15.53;100.00;99790.06;5044225;28;20539;-73
2022/10/15 09:01:54;;;;;;;6.68;5.82;;;;;;;15.41;100.00;99765.19;5042701;28;20052;-75
2022/10/15 09:04:40;;;;;;;5.95;5.20;;;;;;;15.53;100.00;99800.75;5034944;28;20061;-76
2022/10/15 09:07:42;;;;;;;8.50;5.90;;;;;;;15.48;100.00;99802.06;5042430;28;20045;-76
2022/10/15 09:10:16;;;;;;;6.78;6.07;;;;;;;15.54;100.00;99797.13;5016719;28;20095;-77
2022/10/15 09:13:01;;;;;;;6.07;5.40;;;;;;;15.57;100.00;99788.91;5044116;28;20430;-74
2022/10/15 09:15:33;;;;;;;5.47;4.95;;;;;;;15.65;100.00;99802.50;5039999;28;20074;-73
2022/10/15 09:17:59;;;;;;;7.53;5.25;;;;;;;15.64;100.00;99800.78;5045813;28;21403;-71
2022/10/15 09:20:34;;;;;;;6.07;5.43;;;;;;;15.62;100.00;99805.41;5043419;28;20140;-77
2022/10/15 09:23:02;;;;;;;9.35;6.10;;;;;;;15.43;100.00;99773.06;5043381;28;20087;-76
2022/10/15 09:25:35;;;;;;;9.27;6.28;;;;;;;15.64;100.00;99799.94;5043814;28;20049;-76
2022/10/15 09:28:10;;;;;;;9.23;6.03;;;;;;;15.82;100.00;99797.66;5040235;28;20516;-77
2022/10/15 09:30:49;;;;;;;9.35;7.30;;;;;;;15.97;100.00;99788.47;5045586;28;20051;-75
2022/10/15 09:33:34;;;;;;;9.23;5.47;;;;;;;16.21;100.00;99793.69;5039352;28;20056;-73
2022/10/15 09:36:22;;;;;;;5.78;5.05;;;;;;;16.22;100.00;99796.22;5041988;28;20530;-74
2022/10/15 09:39:08;;;;;;;5.78;5.25;;;;;;;16.27;100.00;99799.38;5039682;28;20045;-74
2022/10/15 09:41:50;;;;;;;6.47;5.22;;;;;;;16.07;100.00;99776.06;5045900;28;20385;-75
2022/10/15 09:44:17;;;;;;;4.53;4.13;;;;;;;16.21;100.00;99772.31;5044368;28;20084;-75
2022/10/15 09:46:49;;;;;;;4.07;3.67;;;;;;;16.35;100.00;99775.59;5043384;28;20135;-73
2022/10/15 09:49:26;;;;;;;5.25;4.00;;;;;;;16.49;100.00;99794.03;5030742;28;20044;-76
2022/10/15 09:52:07;;;;;;;4.97;3.75;;;;;;;16.37;100.00;99784.31;5038800;28;20056;-75
2022/10/15 09:55:06;;;;;;;5.28;3.40;;;;;;;16.31;100.00;99805.34;5039662;28;20060;-74
2022/10/15 09:57:36;;;;;;;8.23;2.80;;;;;;;16.29;100.00;99808.13;4998529;28;20140;-70
2022/10/15 10:00:09;;;;;;;4.90;2.70;;;;;;;16.10;100.00;99775.81;5043122;28;20049;-74
2022/10/15 10:02:36;;;;;;;4.45;2.63;;;;;;;16.30;100.00;99798.28;5039711;28;20570;-74
2022/10/15 10:05:27;;;;;;;4.13;2.50;;;;;;;16.34;100.00;99805.94;5039836;28;20808;-74
2022/10/15 10:08:09;;;;;;;4.15;2.40;;;;;;;16.27;100.00;99778.00;5028094;28;20664;-76
2022/10/15 10:10:37;;;;;;;2.60;2.40;;;;;;;16.51;100.00;99785.88;5037161;28;20069;-75
2022/10/15 10:13:38;;;;;;;4.28;2.70;;;;;;;16.72;100.00;99791.31;5041645;28;20123;-74
2022/10/15 10:16:08;;;;;;;3.08;2.55;;;;;;;16.83;100.00;99791.31;5046687;28;20060;-74
2022/10/15 10:18:36;;;;;;;;;;;;;;;16.93;100.00;99815.44;5050503;28;20417;-74
2022/10/15 10:21:06;;;;;;;4.22;3.20;;;;;;;17.01;100.00;99803.13;5043617;28;20472;-72
2022/10/15 10:23:41;;;;;;;6.03;3.15;;;;;;;16.99;100.00;99791.75;5044244;28;20045;-75
2022/10/15 10:26:10;;;;;;;6.30;3.47;;;;;;;17.10;100.00;99802.38;5044614;28;20068;-75
2022/10/15 10:28:50;;;;;;;4.07;3.47;;;;;;;16.88;100.00;99786.41;5048852;28;20080;-76
2022/10/15 10:31:29;;;;;;;5.78;4.15;;;;;;;16.85;100.00;99778.63;5038860;28;20053;-76
2022/10/15 10:34:00;;;;;;;3.70;3.40;;;;;;;16.94;100.00;99804.63;5048489;28;20063;-74
2022/10/15 10:36:27;;;;;;;4.55;3.88;;;;;;;16.78;100.00;99802.38;5050102;28;20045;-75
2022/10/15 10:39:13;;;;;;;4.13;3.35;;;;;;;16.68;100.00;99793.41;5048890;28;20057;-75
2022/10/15 10:41:49;;;;;;;5.63;3.20;;;;;;;16.75;100.00;99807.97;5041544;28;20045;-72
2022/10/15 10:44:36;;;;;;;3.17;2.88;;;;;;;16.73;100.00;99809.06;5045507;28;20049;-74
2022/10/15 10:47:11;;;;;;;3.55;3.03;;;;;;;16.75;100.00;99810.63;5048220;28;20057;-74
2022/10/15 10:49:40;;;;;;;4.75;3.75;;;;;;;16.70;100.00;99801.28;5048696;28;20043;-71
2022/10/15 10:52:26;;;;;;;5.63;3.67;;;;;;;16.69;100.00;99808.44;5046221;28;20123;-74
2022/10/15 10:55:11;;;;;;;3.15;2.85;;;;;;;16.65;100.00;99809.69;5040799;28;20477;-74
2022/10/15 10:57:53;;;;;;;3.03;2.72;;;;;;;16.63;100.00;99813.47;5041320;28;20405;-73
2022/10/15 11:00:22;;;;;;;4.03;2.42;;;;;;;16.47;100.00;99792.44;5043794;28;20064;-74
2022/10/15 11:02:51;;;;;;;4.82;2.97;;;;;;;16.55;100.00;99815.84;5044721;28;20045;-73
2022/10/15 11:05:29;;;;;;;4.15;3.20;;;;;;;16.48;100.00;99802.16;5040791;28;20051;-75
2022/10/15 11:07:55;;;;;;;4.68;3.10;;;;;;;16.51;100.00;99801.91;5045378;28;20053;-72
2022/10/15 11:10:34;;;;;;;3.92;2.30;;;;;;;16.54;100.00;99811.47;5043366;28;20406;-75
2022/10/15 11:13:05;;;;;;;4.28;2.90;;;;;;;16.53;100.00;99804.47;5050030;28;20480;-72
2022/10/15 11:15:56;;;;;;;5.30;3.60;;;;;;;16.57;100.00;99796.06;5041926;28;20045;-76
2022/10/15 11:18:53;;;;;;;3.42;3.13;;;;;;;16.64;100.00;99799.97;5047086;28;20053;-74
2022/10/15 11:21:44;;;;;;;6.00;3.67;;;;;;;16.51;100.00;99769.00;5044848;28;20131;-76
2022/10/15 11:24:44;;;;;;;3.55;3.25;;;;;;;16.66;100.00;99794.50;5040502;28;20075;-76
2022/10/15 11:27:42;;;;;;;5.18;3.20;;;;;;;16.70;100.00;99780.75;5042242;28;20036;-76
2022/10/15 11:30:27;;;;;;;7.75;3.25;;;;;;;17.02;100.00;99761.19;5041830;28;20085;-76
2022/10/15 11:33:02;;;;;;;5.97;4.10;;;;;;;17.33;100.00;99743.38;5044417;28;20056;-76